Accueil
METAR-TAF:

METAR-TAF

Aéroports :

Aéroport de Flores

Flores, Açores, Portugal

latitude: 39-27N, longitude: 031-08W, altitude: 28 m

Observation

Le bulletin a été fait il y a 11 heures et 9 minutes, à 18:00 UTC
Vent 3 kt de ouest/nord-ouest, variant entre ouest/sud-ouest et nord
Température 14°C
Humidité 63%
Pression 1022 hPa
Visibilité 10 km ou plus
Quelques nuages à une hauteur de 2800 ft

METAR: LPFL 251800Z 30003KT 240V350 9999 FEW028 14/07 Q1022

Heure: 04:09 (05:09 UTC)


TAF: absent

Observations et prévisions météorologiques de plus de 4000 aéroports (messages METAR et TAF).

Les stations disponibles sont représentées par des disques jaunes et rouges sur la carte.

Passer la souris dessus pour voir le nom de la station.

Cliquer dessus pour voir les observations et prévisions météorologiques.

Pour changer de carte: cliquez sur les boutons verts avec une croix noire pour zoomer, sur le bouton vert avec un tiret pour effectuer un zoom arrière, ou sur les flèches vertes pour les cartes adjacentes.


METAR-TAF: